sensor_id;sensor_type;location;lat;lon;timestamp;P1;durP1;ratioP1;P2;durP2;ratioP2
24161;SDS011;12318;51.262;7.066;2023-02-20T00:01:22;16.67;;;8.13;;
24161;SDS011;12318;51.262;7.066;2023-02-20T00:03:48;24.77;;;9.55;;
24161;SDS011;12318;51.262;7.066;2023-02-20T00:06:14;20.52;;;10.45;;
24161;SDS011;12318;51.262;7.066;2023-02-20T00:08:43;19.30;;;10.82;;
24161;SDS011;12318;51.262;7.066;2023-02-20T00:11:09;28.55;;;12.65;;
24161;SDS011;12318;51.262;7.066;2023-02-20T00:13:34;17.40;;;11.30;;
24161;SDS011;12318;51.262;7.066;2023-02-20T00:16:00;29.40;;;13.55;;
24161;SDS011;12318;51.262;7.066;2023-02-20T00:18:29;22.50;;;11.90;;
24161;SDS011;12318;51.262;7.066;2023-02-20T00:20:59;15.52;;;9.38;;
24161;SDS011;12318;51.262;7.066;2023-02-20T00:23:27;23.05;;;11.65;;
24161;SDS011;12318;51.262;7.066;2023-02-20T00:25:59;21.80;;;11.35;;
24161;SDS011;12318;51.262;7.066;2023-02-20T00:28:29;22.23;;;12.00;;
24161;SDS011;12318;51.262;7.066;2023-02-20T00:30:54;23.95;;;13.25;;
24161;SDS011;12318;51.262;7.066;2023-02-20T00:33:26;22.63;;;12.75;;
24161;SDS011;12318;51.262;7.066;2023-02-20T00:35:51;28.63;;;14.05;;
24161;SDS011;12318;51.262;7.066;2023-02-20T00:38:20;22.55;;;13.82;;
24161;SDS011;12318;51.262;7.066;2023-02-20T00:40:51;24.38;;;14.10;;
24161;SDS011;12318;51.262;7.066;2023-02-20T00:43:19;24.77;;;13.82;;
24161;SDS011;12318;51.262;7.066;2023-02-20T00:45:45;27.08;;;14.48;;
24161;SDS011;12318;51.262;7.066;2023-02-20T00:48:11;27.08;;;14.70;;
24161;SDS011;12318;51.262;7.066;2023-02-20T00:50:36;26.70;;;14.32;;
24161;SDS011;12318;51.262;7.066;2023-02-20T00:53:05;30.08;;;14.80;;
24161;SDS011;12318;51.262;7.066;2023-02-20T00:55:31;24.77;;;14.30;;
24161;SDS011;12318;51.262;7.066;2023-02-20T00:57:57;27.58;;;14.48;;
24161;SDS011;12318;51.262;7.066;2023-02-20T01:00:27;25.77;;;15.13;;
24161;SDS011;12318;51.262;7.066;2023-02-20T01:02:53;29.20;;;16.38;;
24161;SDS011;12318;51.262;7.066;2023-02-20T01:05:20;30.13;;;16.77;;
24161;SDS011;12318;51.262;7.066;2023-02-20T01:07:46;29.00;;;15.18;;
24161;SDS011;12318;51.262;7.066;2023-02-20T01:10:12;33.78;;;17.30;;
24161;SDS011;12318;51.262;7.066;2023-02-20T01:12:39;27.38;;;15.60;;
24161;SDS011;12318;51.262;7.066;2023-02-20T01:15:08;31.45;;;16.55;;
24161;SDS011;12318;51.262;7.066;2023-02-20T01:17:38;27.73;;;15.60;;
24161;SDS011;12318;51.262;7.066;2023-02-20T01:20:10;26.80;;;15.65;;
24161;SDS011;12318;51.262;7.066;2023-02-20T01:22:36;30.52;;;16.25;;
24161;SDS011;12318;51.262;7.066;2023-02-20T01:25:05;26.02;;;14.85;;
24161;SDS011;12318;51.262;7.066;2023-02-20T01:27:33;25.45;;;14.68;;
24161;SDS011;12318;51.262;7.066;2023-02-20T01:30:04;26.55;;;15.00;;
24161;SDS011;12318;51.262;7.066;2023-02-20T01:32:32;26.65;;;15.15;;
24161;SDS011;12318;51.262;7.066;2023-02-20T01:35:01;27.42;;;14.57;;
24161;SDS011;12318;51.262;7.066;2023-02-20T01:37:27;31.67;;;15.98;;
24161;SDS011;12318;51.262;7.066;2023-02-20T01:39:55;25.58;;;14.98;;
24161;SDS011;12318;51.262;7.066;2023-02-20T01:42:22;28.75;;;15.52;;
24161;SDS011;12318;51.262;7.066;2023-02-20T01:44:53;23.13;;;14.27;;
24161;SDS011;12318;51.262;7.066;2023-02-20T01:47:20;24.75;;;15.10;;
24161;SDS011;12318;51.262;7.066;2023-02-20T01:49:49;22.42;;;14.73;;
24161;SDS011;12318;51.262;7.066;2023-02-20T01:52:18;25.25;;;14.77;;
24161;SDS011;12318;51.262;7.066;2023-02-20T01:54:54;30.00;;;15.55;;
24161;SDS011;12318;51.262;7.066;2023-02-20T01:57:30;23.23;;;14.45;;
24161;SDS011;12318;51.262;7.066;2023-02-20T02:00:09;25.23;;;14.80;;
24161;SDS011;12318;51.262;7.066;2023-02-20T02:02:39;28.13;;;14.80;;
24161;SDS011;12318;51.262;7.066;2023-02-20T02:05:15;28.15;;;15.48;;
24161;SDS011;12318;51.262;7.066;2023-02-20T02:07:49;25.20;;;14.50;;
24161;SDS011;12318;51.262;7.066;2023-02-20T02:10:17;38.05;;;15.82;;
24161;SDS011;12318;51.262;7.066;2023-02-20T02:12:47;26.50;;;15.77;;
24161;SDS011;12318;51.262;7.066;2023-02-20T02:15:20;30.15;;;15.38;;
24161;SDS011;12318;51.262;7.066;2023-02-20T02:23:58;30.05;;;16.73;;
24161;SDS011;12318;51.262;7.066;2023-02-20T02:37:39;28.85;;;16.63;;
24161;SDS011;12318;51.262;7.066;2023-02-20T02:45:55;30.23;;;17.58;;
24161;SDS011;12318;51.262;7.066;2023-02-20T02:48:38;32.70;;;16.80;;
24161;SDS011;12318;51.262;7.066;2023-02-20T02:51:28;33.33;;;18.05;;
24161;SDS011;12318;51.262;7.066;2023-02-20T02:56:39;29.70;;;17.27;;
24161;SDS011;12318;51.262;7.066;2023-02-20T02:59:08;33.65;;;17.83;;
24161;SDS011;12318;51.262;7.066;2023-02-20T03:01:39;22.52;;;13.05;;
24161;SDS011;12318;51.262;7.066;2023-02-20T03:04:09;30.25;;;17.27;;
24161;SDS011;12318;51.262;7.066;2023-02-20T03:06:37;26.00;;;15.98;;
24161;SDS011;12318;51.262;7.066;2023-02-20T03:09:09;32.40;;;17.92;;
24161;SDS011;12318;51.262;7.066;2023-02-20T03:11:42;32.78;;;17.00;;
24161;SDS011;12318;51.262;7.066;2023-02-20T03:14:16;32.50;;;16.77;;
24161;SDS011;12318;51.262;7.066;2023-02-20T03:20:10;31.02;;;17.35;;
24161;SDS011;12318;51.262;7.066;2023-02-20T03:22:59;32.22;;;16.88;;
24161;SDS011;12318;51.262;7.066;2023-02-20T03:25:39;31.30;;;16.77;;
24161;SDS011;12318;51.262;7.066;2023-02-20T03:28:14;34.58;;;17.73;;
24161;SDS011;12318;51.262;7.066;2023-02-20T03:30:56;35.45;;;19.33;;
24161;SDS011;12318;51.262;7.066;2023-02-20T03:33:30;33.88;;;17.50;;
24161;SDS011;12318;51.262;7.066;2023-02-20T03:36:21;36.90;;;18.77;;
24161;SDS011;12318;51.262;7.066;2023-02-20T03:39:12;35.40;;;19.50;;
24161;SDS011;12318;51.262;7.066;2023-02-20T03:42:04;37.80;;;19.20;;
24161;SDS011;12318;51.262;7.066;2023-02-20T03:44:51;32.03;;;18.20;;
24161;SDS011;12318;51.262;7.066;2023-02-20T03:47:18;41.80;;;19.05;;
24161;SDS011;12318;51.262;7.066;2023-02-20T03:49:47;39.22;;;18.20;;
24161;SDS011;12318;51.262;7.066;2023-02-20T03:52:17;36.90;;;18.05;;
24161;SDS011;12318;51.262;7.066;2023-02-20T03:54:46;35.05;;;17.60;;
24161;SDS011;12318;51.262;7.066;2023-02-20T03:57:14;37.13;;;18.15;;
24161;SDS011;12318;51.262;7.066;2023-02-20T03:59:49;38.20;;;18.60;;
24161;SDS011;12318;51.262;7.066;2023-02-20T04:02:24;33.15;;;17.55;;
24161;SDS011;12318;51.262;7.066;2023-02-20T04:04:55;37.63;;;17.42;;
24161;SDS011;12318;51.262;7.066;2023-02-20T04:07:26;36.75;;;18.40;;
24161;SDS011;12318;51.262;7.066;2023-02-20T04:10:00;30.23;;;16.65;;
24161;SDS011;12318;51.262;7.066;2023-02-20T04:12:38;34.08;;;17.05;;
24161;SDS011;12318;51.262;7.066;2023-02-20T04:15:07;35.47;;;16.25;;
24161;SDS011;12318;51.262;7.066;2023-02-20T04:17:36;34.08;;;16.08;;
24161;SDS011;12318;51.262;7.066;2023-02-20T04:20:09;31.45;;;15.52;;
24161;SDS011;12318;51.262;7.066;2023-02-20T04:22:37;33.03;;;16.13;;
24161;SDS011;12318;51.262;7.066;2023-02-20T04:30:34;31.75;;;15.38;;
24161;SDS011;12318;51.262;7.066;2023-02-20T04:33:02;36.70;;;15.30;;
24161;SDS011;12318;51.262;7.066;2023-02-20T04:35:28;34.28;;;16.05;;
24161;SDS011;12318;51.262;7.066;2023-02-20T04:37:56;30.02;;;14.68;;
24161;SDS011;12318;51.262;7.066;2023-02-20T04:40:23;28.48;;;14.00;;
24161;SDS011;12318;51.262;7.066;2023-02-20T04:42:49;28.48;;;12.93;;
24161;SDS011;12318;51.262;7.066;2023-02-20T04:45:15;28.23;;;13.57;;
24161;SDS011;12318;51.262;7.066;2023-02-20T04:47:42;27.67;;;12.93;;
24161;SDS011;12318;51.262;7.066;2023-02-20T04:50:21;26.30;;;13.02;;
24161;SDS011;12318;51.262;7.066;2023-02-20T04:52:50;29.33;;;12.65;;
24161;SDS011;12318;51.262;7.066;2023-02-20T04:55:16;30.05;;;11.90;;
24161;SDS011;12318;51.262;7.066;2023-02-20T04:57:45;26.42;;;12.63;;
24161;SDS011;12318;51.262;7.066;2023-02-20T05:00:13;29.25;;;12.18;;
24161;SDS011;12318;51.262;7.066;2023-02-20T05:02:41;26.27;;;11.73;;
24161;SDS011;12318;51.262;7.066;2023-02-20T05:05:14;23.52;;;10.57;;
24161;SDS011;12318;51.262;7.066;2023-02-20T05:07:44;22.35;;;10.52;;
24161;SDS011;12318;51.262;7.066;2023-02-20T05:10:14;26.38;;;11.82;;
24161;SDS011;12318;51.262;7.066;2023-02-20T05:12:45;29.38;;;12.48;;
24161;SDS011;12318;51.262;7.066;2023-02-20T05:15:11;27.58;;;11.52;;
24161;SDS011;12318;51.262;7.066;2023-02-20T05:17:37;29.60;;;11.73;;
24161;SDS011;12318;51.262;7.066;2023-02-20T05:20:04;21.15;;;10.88;;
24161;SDS011;12318;51.262;7.066;2023-02-20T05:22:31;22.55;;;10.88;;
24161;SDS011;12318;51.262;7.066;2023-02-20T05:24:57;26.50;;;10.80;;
24161;SDS011;12318;51.262;7.066;2023-02-20T05:27:23;19.92;;;10.40;;
24161;SDS011;12318;51.262;7.066;2023-02-20T05:29:51;23.48;;;10.77;;
24161;SDS011;12318;51.262;7.066;2023-02-20T05:32:21;21.83;;;10.82;;
24161;SDS011;12318;51.262;7.066;2023-02-20T05:34:52;24.05;;;10.75;;
24161;SDS011;12318;51.262;7.066;2023-02-20T05:37:21;23.17;;;10.20;;
24161;SDS011;12318;51.262;7.066;2023-02-20T05:39:51;23.27;;;10.88;;
24161;SDS011;12318;51.262;7.066;2023-02-20T05:42:17;29.67;;;10.52;;
24161;SDS011;12318;51.262;7.066;2023-02-20T05:44:45;21.23;;;9.88;;
24161;SDS011;12318;51.262;7.066;2023-02-20T05:47:14;16.75;;;9.32;;
24161;SDS011;12318;51.262;7.066;2023-02-20T05:49:43;26.38;;;9.70;;
24161;SDS011;12318;51.262;7.066;2023-02-20T05:52:10;21.77;;;10.07;;
24161;SDS011;12318;51.262;7.066;2023-02-20T05:54:37;24.40;;;9.80;;
24161;SDS011;12318;51.262;7.066;2023-02-20T05:57:03;23.75;;;9.68;;
24161;SDS011;12318;51.262;7.066;2023-02-20T05:59:30;27.70;;;9.35;;
24161;SDS011;12318;51.262;7.066;2023-02-20T06:01:59;19.77;;;8.60;;
24161;SDS011;12318;51.262;7.066;2023-02-20T06:04:25;22.38;;;8.90;;
24161;SDS011;12318;51.262;7.066;2023-02-20T06:06:51;23.98;;;9.18;;
24161;SDS011;12318;51.262;7.066;2023-02-20T06:09:17;18.23;;;8.38;;
24161;SDS011;12318;51.262;7.066;2023-02-20T06:11:54;18.65;;;8.35;;
24161;SDS011;12318;51.262;7.066;2023-02-20T06:14:21;26.48;;;9.65;;
24161;SDS011;12318;51.262;7.066;2023-02-20T06:16:50;25.55;;;9.13;;
24161;SDS011;12318;51.262;7.066;2023-02-20T06:19:17;22.90;;;8.77;;
24161;SDS011;12318;51.262;7.066;2023-02-20T06:21:47;23.23;;;9.75;;
24161;SDS011;12318;51.262;7.066;2023-02-20T06:24:14;26.65;;;9.07;;
24161;SDS011;12318;51.262;7.066;2023-02-20T06:26:41;19.65;;;8.35;;
24161;SDS011;12318;51.262;7.066;2023-02-20T06:29:08;26.63;;;9.10;;
24161;SDS011;12318;51.262;7.066;2023-02-20T06:31:37;25.30;;;8.75;;
24161;SDS011;12318;51.262;7.066;2023-02-20T06:34:06;23.33;;;8.05;;
24161;SDS011;12318;51.262;7.066;2023-02-20T06:36:34;19.27;;;8.02;;
24161;SDS011;12318;51.262;7.066;2023-02-20T06:39:01;20.67;;;8.70;;
24161;SDS011;12318;51.262;7.066;2023-02-20T06:41:28;21.52;;;7.80;;
24161;SDS011;12318;51.262;7.066;2023-02-20T06:43:54;23.92;;;8.88;;
24161;SDS011;12318;51.262;7.066;2023-02-20T06:46:20;23.25;;;9.10;;
24161;SDS011;12318;51.262;7.066;2023-02-20T06:48:55;21.60;;;8.77;;
24161;SDS011;12318;51.262;7.066;2023-02-20T06:51:23;24.38;;;9.13;;
24161;SDS011;12318;51.262;7.066;2023-02-20T06:53:59;25.00;;;9.65;;
24161;SDS011;12318;51.262;7.066;2023-02-20T06:56:32;20.05;;;9.27;;
24161;SDS011;12318;51.262;7.066;2023-02-20T06:59:04;18.13;;;9.90;;
24161;SDS011;12318;51.262;7.066;2023-02-20T07:01:36;26.98;;;11.18;;
24161;SDS011;12318;51.262;7.066;2023-02-20T07:06:30;23.45;;;11.20;;
24161;SDS011;12318;51.262;7.066;2023-02-20T07:08:59;23.23;;;11.23;;
24161;SDS011;12318;51.262;7.066;2023-02-20T07:11:27;26.25;;;13.23;;
24161;SDS011;12318;51.262;7.066;2023-02-20T07:13:53;30.98;;;13.60;;
24161;SDS011;12318;51.262;7.066;2023-02-20T07:16:18;29.55;;;14.02;;
24161;SDS011;12318;51.262;7.066;2023-02-20T07:18:44;23.58;;;12.98;;
24161;SDS011;12318;51.262;7.066;2023-02-20T07:21:10;26.55;;;14.50;;
24161;SDS011;12318;51.262;7.066;2023-02-20T07:23:38;29.38;;;15.00;;
24161;SDS011;12318;51.262;7.066;2023-02-20T07:26:06;29.02;;;14.88;;
24161;SDS011;12318;51.262;7.066;2023-02-20T07:28:52;32.30;;;15.95;;
24161;SDS011;12318;51.262;7.066;2023-02-20T07:31:29;30.25;;;16.30;;
24161;SDS011;12318;51.262;7.066;2023-02-20T07:33:56;26.77;;;16.52;;
24161;SDS011;12318;51.262;7.066;2023-02-20T07:36:22;34.42;;;16.90;;
24161;SDS011;12318;51.262;7.066;2023-02-20T07:38:55;35.25;;;17.90;;
24161;SDS011;12318;51.262;7.066;2023-02-20T07:41:26;33.13;;;18.05;;
24161;SDS011;12318;51.262;7.066;2023-02-20T07:43:53;31.30;;;17.25;;
24161;SDS011;12318;51.262;7.066;2023-02-20T07:46:20;30.33;;;17.08;;
24161;SDS011;12318;51.262;7.066;2023-02-20T07:48:49;33.15;;;16.67;;
24161;SDS011;12318;51.262;7.066;2023-02-20T07:51:17;32.72;;;18.30;;
24161;SDS011;12318;51.262;7.066;2023-02-20T07:53:47;33.97;;;17.92;;
24161;SDS011;12318;51.262;7.066;2023-02-20T07:56:14;28.00;;;16.73;;
24161;SDS011;12318;51.262;7.066;2023-02-20T07:58:40;34.78;;;16.75;;
24161;SDS011;12318;51.262;7.066;2023-02-20T08:01:06;30.45;;;16.50;;
24161;SDS011;12318;51.262;7.066;2023-02-20T08:03:31;30.10;;;15.90;;
24161;SDS011;12318;51.262;7.066;2023-02-20T08:05:57;26.70;;;16.27;;
24161;SDS011;12318;51.262;7.066;2023-02-20T08:08:24;32.00;;;16.08;;
24161;SDS011;12318;51.262;7.066;2023-02-20T08:10:50;32.33;;;16.77;;
24161;SDS011;12318;51.262;7.066;2023-02-20T08:13:16;30.33;;;16.88;;
24161;SDS011;12318;51.262;7.066;2023-02-20T08:15:43;29.25;;;17.25;;
24161;SDS011;12318;51.262;7.066;2023-02-20T08:18:14;30.98;;;16.05;;
24161;SDS011;12318;51.262;7.066;2023-02-20T08:20:43;29.02;;;16.38;;
24161;SDS011;12318;51.262;7.066;2023-02-20T08:23:20;23.92;;;15.88;;
24161;SDS011;12318;51.262;7.066;2023-02-20T08:25:46;31.15;;;16.05;;
24161;SDS011;12318;51.262;7.066;2023-02-20T08:28:14;25.35;;;16.48;;
24161;SDS011;12318;51.262;7.066;2023-02-20T08:30:40;24.85;;;14.82;;
24161;SDS011;12318;51.262;7.066;2023-02-20T08:33:06;32.17;;;15.68;;
24161;SDS011;12318;51.262;7.066;2023-02-20T08:35:32;29.15;;;15.70;;
24161;SDS011;12318;51.262;7.066;2023-02-20T08:38:04;25.98;;;15.70;;
24161;SDS011;12318;51.262;7.066;2023-02-20T08:40:33;29.38;;;15.73;;
24161;SDS011;12318;51.262;7.066;2023-02-20T08:43:02;26.92;;;14.85;;
24161;SDS011;12318;51.262;7.066;2023-02-20T08:45:28;31.00;;;15.95;;
24161;SDS011;12318;51.262;7.066;2023-02-20T08:48:05;32.35;;;15.98;;
24161;SDS011;12318;51.262;7.066;2023-02-20T08:50:39;28.20;;;15.43;;
24161;SDS011;12318;51.262;7.066;2023-02-20T08:53:05;28.80;;;16.42;;
24161;SDS011;12318;51.262;7.066;2023-02-20T08:55:30;28.35;;;16.17;;
24161;SDS011;12318;51.262;7.066;2023-02-20T08:57:56;32.95;;;16.70;;
24161;SDS011;12318;51.262;7.066;2023-02-20T09:00:25;27.63;;;16.08;;
24161;SDS011;12318;51.262;7.066;2023-02-20T09:02:53;24.30;;;15.35;;
24161;SDS011;12318;51.262;7.066;2023-02-20T09:05:19;27.73;;;16.50;;
24161;SDS011;12318;51.262;7.066;2023-02-20T09:07:45;27.40;;;16.67;;
24161;SDS011;12318;51.262;7.066;2023-02-20T09:10:13;26.02;;;16.05;;
24161;SDS011;12318;51.262;7.066;2023-02-20T09:12:38;25.98;;;15.95;;
24161;SDS011;12318;51.262;7.066;2023-02-20T09:15:08;30.27;;;16.65;;
24161;SDS011;12318;51.262;7.066;2023-02-20T09:17:34;27.98;;;16.30;;
24161;SDS011;12318;51.262;7.066;2023-02-20T09:20:00;31.38;;;17.40;;
24161;SDS011;12318;51.262;7.066;2023-02-20T09:22:29;29.60;;;16.80;;
24161;SDS011;12318;51.262;7.066;2023-02-20T09:24:57;27.63;;;16.98;;
24161;SDS011;12318;51.262;7.066;2023-02-20T09:27:23;28.05;;;16.30;;
24161;SDS011;12318;51.262;7.066;2023-02-20T09:29:49;26.88;;;16.90;;
24161;SDS011;12318;51.262;7.066;2023-02-20T09:32:15;28.88;;;16.20;;
24161;SDS011;12318;51.262;7.066;2023-02-20T09:34:46;33.22;;;16.52;;
24161;SDS011;12318;51.262;7.066;2023-02-20T09:37:13;25.92;;;16.73;;
24161;SDS011;12318;51.262;7.066;2023-02-20T09:39:39;29.65;;;16.30;;
24161;SDS011;12318;51.262;7.066;2023-02-20T09:42:21;31.85;;;17.42;;
24161;SDS011;12318;51.262;7.066;2023-02-20T09:47:57;29.00;;;17.05;;
24161;SDS011;12318;51.262;7.066;2023-02-20T09:50:52;28.25;;;15.98;;
24161;SDS011;12318;51.262;7.066;2023-02-20T09:53:34;25.95;;;16.10;;
24161;SDS011;12318;51.262;7.066;2023-02-20T09:56:02;31.63;;;16.92;;
24161;SDS011;12318;51.262;7.066;2023-02-20T10:01:10;28.63;;;16.17;;
24161;SDS011;12318;51.262;7.066;2023-02-20T10:03:55;27.63;;;15.57;;
24161;SDS011;12318;51.262;7.066;2023-02-20T10:06:29;28.25;;;15.18;;
24161;SDS011;12318;51.262;7.066;2023-02-20T10:08:57;29.83;;;15.93;;
24161;SDS011;12318;51.262;7.066;2023-02-20T10:11:36;29.13;;;16.33;;
24161;SDS011;12318;51.262;7.066;2023-02-20T10:17:35;30.60;;;16.65;;
24161;SDS011;12318;51.262;7.066;2023-02-20T10:26:06;35.83;;;17.38;;
24161;SDS011;12318;51.262;7.066;2023-02-20T10:31:54;28.73;;;17.48;;
24161;SDS011;12318;51.262;7.066;2023-02-20T10:37:02;33.45;;;16.90;;
24161;SDS011;12318;51.262;7.066;2023-02-20T10:39:44;24.52;;;16.42;;
24161;SDS011;12318;51.262;7.066;2023-02-20T10:42:36;26.73;;;16.05;;
24161;SDS011;12318;51.262;7.066;2023-02-20T10:45:13;31.88;;;15.93;;
24161;SDS011;12318;51.262;7.066;2023-02-20T10:48:08;32.35;;;16.33;;
24161;SDS011;12318;51.262;7.066;2023-02-20T10:50:47;26.92;;;15.90;;
24161;SDS011;12318;51.262;7.066;2023-02-20T10:53:20;31.85;;;16.63;;
24161;SDS011;12318;51.262;7.066;2023-02-20T10:58:54;31.17;;;16.33;;
24161;SDS011;12318;51.262;7.066;2023-02-20T11:01:29;34.22;;;16.23;;
24161;SDS011;12318;51.262;7.066;2023-02-20T11:03:58;34.22;;;15.45;;
24161;SDS011;12318;51.262;7.066;2023-02-20T11:06:39;31.35;;;15.05;;
24161;SDS011;12318;51.262;7.066;2023-02-20T11:14:15;26.58;;;15.95;;
24161;SDS011;12318;51.262;7.066;2023-02-20T11:16:59;31.25;;;16.25;;
24161;SDS011;12318;51.262;7.066;2023-02-20T11:22:38;29.63;;;14.55;;
24161;SDS011;12318;51.262;7.066;2023-02-20T11:25:14;27.52;;;14.50;;
24161;SDS011;12318;51.262;7.066;2023-02-20T11:27:41;25.88;;;15.20;;
24161;SDS011;12318;51.262;7.066;2023-02-20T11:33:10;25.38;;;14.75;;
24161;SDS011;12318;51.262;7.066;2023-02-20T11:35:47;21.77;;;14.18;;
24161;SDS011;12318;51.262;7.066;2023-02-20T11:44:02;25.25;;;15.57;;
24161;SDS011;12318;51.262;7.066;2023-02-20T11:46:16;29.52;;;15.10;;
24161;SDS011;12318;51.262;7.066;2023-02-20T11:48:58;24.67;;;15.43;;
24161;SDS011;12318;51.262;7.066;2023-02-20T11:51:45;25.35;;;15.48;;
24161;SDS011;12318;51.262;7.066;2023-02-20T11:54:22;27.25;;;16.30;;
24161;SDS011;12318;51.262;7.066;2023-02-20T11:59:50;29.25;;;14.65;;
24161;SDS011;12318;51.262;7.066;2023-02-20T12:02:32;25.08;;;14.77;;
24161;SDS011;12318;51.262;7.066;2023-02-20T12:07:43;25.80;;;14.52;;
24161;SDS011;12318;51.262;7.066;2023-02-20T12:10:37;26.05;;;14.57;;
24161;SDS011;12318;51.262;7.066;2023-02-20T12:13:14;25.83;;;15.20;;
24161;SDS011;12318;51.262;7.066;2023-02-20T12:15:42;27.92;;;15.00;;
24161;SDS011;12318;51.262;7.066;2023-02-20T12:20:59;24.10;;;13.52;;
24161;SDS011;12318;51.262;7.066;2023-02-20T12:23:32;26.95;;;14.38;;
24161;SDS011;12318;51.262;7.066;2023-02-20T12:26:12;27.52;;;14.02;;
24161;SDS011;12318;51.262;7.066;2023-02-20T12:36:36;24.23;;;13.90;;
24161;SDS011;12318;51.262;7.066;2023-02-20T12:47:15;30.08;;;13.63;;
24161;SDS011;12318;51.262;7.066;2023-02-20T13:01:05;30.85;;;16.67;;
24161;SDS011;12318;51.262;7.066;2023-02-20T13:06:20;28.23;;;16.38;;
24161;SDS011;12318;51.262;7.066;2023-02-20T13:09:02;29.77;;;16.90;;
24161;SDS011;12318;51.262;7.066;2023-02-20T13:11:38;25.48;;;15.68;;
24161;SDS011;12318;51.262;7.066;2023-02-20T13:14:18;27.15;;;16.27;;
24161;SDS011;12318;51.262;7.066;2023-02-20T13:17:17;28.95;;;16.85;;
24161;SDS011;12318;51.262;7.066;2023-02-20T13:23:02;29.77;;;18.15;;
24161;SDS011;12318;51.262;7.066;2023-02-20T13:25:51;27.38;;;17.10;;
24161;SDS011;12318;51.262;7.066;2023-02-20T13:33:44;30.98;;;16.88;;
24161;SDS011;12318;51.262;7.066;2023-02-20T13:36:16;26.65;;;17.33;;
24161;SDS011;12318;51.262;7.066;2023-02-20T13:47:00;34.40;;;18.30;;
24161;SDS011;12318;51.262;7.066;2023-02-20T13:54:56;34.97;;;16.95;;
24161;SDS011;12318;51.262;7.066;2023-02-20T13:57:30;28.23;;;17.50;;
24161;SDS011;12318;51.262;7.066;2023-02-20T14:00:00;28.13;;;17.20;;
24161;SDS011;12318;51.262;7.066;2023-02-20T14:02:39;30.98;;;18.00;;
24161;SDS011;12318;51.262;7.066;2023-02-20T14:08:05;26.63;;;16.25;;
24161;SDS011;12318;51.262;7.066;2023-02-20T14:10:32;30.48;;;17.23;;
24161;SDS011;12318;51.262;7.066;2023-02-20T14:13:14;30.98;;;17.42;;
24161;SDS011;12318;51.262;7.066;2023-02-20T14:15:44;31.38;;;18.13;;
24161;SDS011;12318;51.262;7.066;2023-02-20T14:18:32;30.58;;;18.38;;
24161;SDS011;12318;51.262;7.066;2023-02-20T14:23:42;27.58;;;18.25;;
24161;SDS011;12318;51.262;7.066;2023-02-20T14:28:44;30.92;;;17.65;;
24161;SDS011;12318;51.262;7.066;2023-02-20T14:33:58;31.80;;;18.38;;
24161;SDS011;12318;51.262;7.066;2023-02-20T14:41:38;34.42;;;17.80;;
24161;SDS011;12318;51.262;7.066;2023-02-20T14:44:24;40.30;;;19.42;;
24161;SDS011;12318;51.262;7.066;2023-02-20T14:46:53;33.05;;;19.15;;
24161;SDS011;12318;51.262;7.066;2023-02-20T14:49:22;32.40;;;18.92;;
24161;SDS011;12318;51.262;7.066;2023-02-20T14:51:50;34.17;;;19.75;;
24161;SDS011;12318;51.262;7.066;2023-02-20T14:54:22;34.88;;;18.60;;
24161;SDS011;12318;51.262;7.066;2023-02-20T14:56:53;37.92;;;19.48;;
24161;SDS011;12318;51.262;7.066;2023-02-20T14:59:27;34.95;;;20.52;;
24161;SDS011;12318;51.262;7.066;2023-02-20T15:01:58;37.28;;;19.63;;
24161;SDS011;12318;51.262;7.066;2023-02-20T15:04:45;36.33;;;20.23;;
24161;SDS011;12318;51.262;7.066;2023-02-20T15:07:14;36.03;;;19.08;;
24161;SDS011;12318;51.262;7.066;2023-02-20T15:09:42;33.20;;;20.23;;
24161;SDS011;12318;51.262;7.066;2023-02-20T15:12:23;35.55;;;18.42;;
24161;SDS011;12318;51.262;7.066;2023-02-20T15:15:14;34.30;;;18.98;;
24161;SDS011;12318;51.262;7.066;2023-02-20T15:17:43;33.83;;;19.20;;
24161;SDS011;12318;51.262;7.066;2023-02-20T15:22:47;33.00;;;17.77;;
24161;SDS011;12318;51.262;7.066;2023-02-20T15:25:31;34.70;;;19.42;;
24161;SDS011;12318;51.262;7.066;2023-02-20T15:28:04;32.45;;;18.95;;
24161;SDS011;12318;51.262;7.066;2023-02-20T15:33:27;37.13;;;20.70;;
24161;SDS011;12318;51.262;7.066;2023-02-20T15:35:55;32.78;;;19.25;;
24161;SDS011;12318;51.262;7.066;2023-02-20T15:38:25;37.50;;;19.38;;
24161;SDS011;12318;51.262;7.066;2023-02-20T15:40:55;37.00;;;19.92;;
24161;SDS011;12318;51.262;7.066;2023-02-20T15:43:22;35.80;;;20.17;;
24161;SDS011;12318;51.262;7.066;2023-02-20T15:45:48;37.10;;;19.05;;
24161;SDS011;12318;51.262;7.066;2023-02-20T15:48:14;31.20;;;18.48;;
24161;SDS011;12318;51.262;7.066;2023-02-20T15:50:40;38.92;;;19.88;;
24161;SDS011;12318;51.262;7.066;2023-02-20T15:53:08;38.08;;;20.08;;
24161;SDS011;12318;51.262;7.066;2023-02-20T15:55:39;37.65;;;19.65;;
24161;SDS011;12318;51.262;7.066;2023-02-20T16:00:54;41.08;;;20.90;;
24161;SDS011;12318;51.262;7.066;2023-02-20T16:03:25;38.80;;;21.13;;
24161;SDS011;12318;51.262;7.066;2023-02-20T16:05:53;34.87;;;20.20;;
24161;SDS011;12318;51.262;7.066;2023-02-20T16:08:20;35.92;;;20.17;;
24161;SDS011;12318;51.262;7.066;2023-02-20T16:10:46;36.17;;;20.33;;
24161;SDS011;12318;51.262;7.066;2023-02-20T16:16:15;32.30;;;19.23;;
24161;SDS011;12318;51.262;7.066;2023-02-20T16:18:44;33.80;;;19.42;;
24161;SDS011;12318;51.262;7.066;2023-02-20T16:21:13;37.17;;;19.88;;
24161;SDS011;12318;51.262;7.066;2023-02-20T16:23:42;30.65;;;18.63;;
24161;SDS011;12318;51.262;7.066;2023-02-20T16:26:10;35.03;;;19.30;;
24161;SDS011;12318;51.262;7.066;2023-02-20T16:28:39;33.88;;;19.02;;
24161;SDS011;12318;51.262;7.066;2023-02-20T16:31:10;38.33;;;19.60;;
24161;SDS011;12318;51.262;7.066;2023-02-20T16:33:38;33.65;;;19.10;;
24161;SDS011;12318;51.262;7.066;2023-02-20T16:36:04;36.58;;;20.02;;
24161;SDS011;12318;51.262;7.066;2023-02-20T16:38:30;36.83;;;18.45;;
24161;SDS011;12318;51.262;7.066;2023-02-20T16:40:58;36.45;;;19.67;;
24161;SDS011;12318;51.262;7.066;2023-02-20T16:43:30;32.33;;;19.52;;
24161;SDS011;12318;51.262;7.066;2023-02-20T16:45:56;34.80;;;19.80;;
24161;SDS011;12318;51.262;7.066;2023-02-20T16:48:22;30.38;;;19.55;;
24161;SDS011;12318;51.262;7.066;2023-02-20T16:50:53;36.28;;;20.08;;
24161;SDS011;12318;51.262;7.066;2023-02-20T16:53:21;31.90;;;18.88;;
24161;SDS011;12318;51.262;7.066;2023-02-20T16:55:56;34.25;;;19.67;;
24161;SDS011;12318;51.262;7.066;2023-02-20T16:58:22;31.55;;;19.05;;
24161;SDS011;12318;51.262;7.066;2023-02-20T17:00:47;37.05;;;19.50;;
24161;SDS011;12318;51.262;7.066;2023-02-20T17:03:18;36.30;;;18.75;;
24161;SDS011;12318;51.262;7.066;2023-02-20T17:05:46;33.97;;;18.67;;
24161;SDS011;12318;51.262;7.066;2023-02-20T17:08:17;32.03;;;18.30;;
24161;SDS011;12318;51.262;7.066;2023-02-20T17:10:46;36.53;;;19.35;;
24161;SDS011;12318;51.262;7.066;2023-02-20T17:13:11;33.10;;;18.20;;
24161;SDS011;12318;51.262;7.066;2023-02-20T17:15:40;32.53;;;17.40;;
24161;SDS011;12318;51.262;7.066;2023-02-20T17:18:06;28.50;;;17.83;;
24161;SDS011;12318;51.262;7.066;2023-02-20T17:20:31;32.55;;;17.98;;
24161;SDS011;12318;51.262;7.066;2023-02-20T17:23:00;32.75;;;17.95;;
24161;SDS011;12318;51.262;7.066;2023-02-20T17:25:29;29.38;;;17.50;;
24161;SDS011;12318;51.262;7.066;2023-02-20T17:27:56;28.77;;;18.15;;
24161;SDS011;12318;51.262;7.066;2023-02-20T17:30:22;29.52;;;18.48;;